createdAt,value
2018-07-25T00:02:23.170Z,5.10
2018-07-25T00:04:52.415Z,5.27
2018-07-25T00:07:21.284Z,4.53
2018-07-25T00:09:50.678Z,4.70
2018-07-25T00:12:20.529Z,4.77
2018-07-25T00:14:49.804Z,4.20
2018-07-25T00:17:18.929Z,4.10
2018-07-25T00:19:48.106Z,4.40
2018-07-25T00:22:17.213Z,4.40
2018-07-25T00:24:46.504Z,4.57
2018-07-25T00:27:15.721Z,4.03
2018-07-25T00:29:44.642Z,4.90
2018-07-25T00:32:13.799Z,4.53
2018-07-25T00:34:42.853Z,4.73
2018-07-25T00:37:11.955Z,4.70
2018-07-25T00:39:40.928Z,4.57
2018-07-25T00:42:10.070Z,5.00
2018-07-25T00:44:39.255Z,4.23
2018-07-25T00:47:08.070Z,4.73
2018-07-25T00:49:37.058Z,4.30
2018-07-25T00:52:06.278Z,4.47
2018-07-25T00:54:35.337Z,4.40
2018-07-25T00:57:04.145Z,3.93
2018-07-25T00:59:33.782Z,4.50
2018-07-25T01:02:04.022Z,3.87
2018-07-25T01:04:33.498Z,3.70
2018-07-25T01:07:03.248Z,3.47
2018-07-25T01:09:32.889Z,3.87
2018-07-25T01:12:02.821Z,3.87
2018-07-25T01:14:32.478Z,3.93
2018-07-25T01:17:05.303Z,3.70
2018-07-25T01:19:35.451Z,3.83
2018-07-25T01:22:05.281Z,3.60
2018-07-25T01:24:35.532Z,3.87
2018-07-25T01:27:05.355Z,3.60
2018-07-25T01:29:34.684Z,4.17
2018-07-25T01:32:04.698Z,4.10
2018-07-25T01:34:34.380Z,3.80
2018-07-25T01:37:05.094Z,3.43
2018-07-25T01:39:35.048Z,3.73
2018-07-25T01:42:04.703Z,3.93
2018-07-25T01:44:34.390Z,3.70
2018-07-25T01:47:04.062Z,4.30
2018-07-25T01:49:34.250Z,4.67
2018-07-25T01:52:04.152Z,5.33
2018-07-25T01:54:33.695Z,4.97
2018-07-25T01:57:03.440Z,4.93
2018-07-25T01:59:33.419Z,5.27
2018-07-25T02:02:02.981Z,4.93
2018-07-25T02:04:32.666Z,6.13
2018-07-25T02:07:02.264Z,5.83
2018-07-25T02:09:31.960Z,5.40
2018-07-25T02:12:01.895Z,5.60
2018-07-25T02:14:31.721Z,5.20
2018-07-25T02:17:00.468Z,4.97
2018-07-25T02:19:29.326Z,4.40
2018-07-25T02:22:00.233Z,4.33
2018-07-25T02:24:29.250Z,5.53
2018-07-25T02:26:58.283Z,5.03
2018-07-25T02:29:27.239Z,4.50
2018-07-25T02:31:56.199Z,4.23
2018-07-25T02:34:25.214Z,4.50
2018-07-25T02:36:54.270Z,4.83
2018-07-25T02:39:23.514Z,5.27
2018-07-25T02:41:52.330Z,5.40
2018-07-25T02:44:21.132Z,4.73
2018-07-25T02:46:50.024Z,4.37
2018-07-25T02:49:19.022Z,4.50
2018-07-25T02:51:48.133Z,5.13
2018-07-25T02:54:16.837Z,6.67
2018-07-25T02:56:45.968Z,5.60
2018-07-25T02:59:14.978Z,5.13
2018-07-25T03:01:44.697Z,6.07
2018-07-25T03:04:13.683Z,5.20
2018-07-25T03:06:42.714Z,5.30
2018-07-25T03:09:11.697Z,5.33
2018-07-25T03:11:42.134Z,5.77
2018-07-25T03:14:11.325Z,5.13
2018-07-25T03:16:40.424Z,6.63
2018-07-25T03:19:09.445Z,6.83
2018-07-25T03:21:38.443Z,5.87
2018-07-25T03:24:07.447Z,6.83
2018-07-25T03:26:36.527Z,5.37
2018-07-25T03:29:05.309Z,5.50
2018-07-25T03:31:34.477Z,5.73
2018-07-25T03:34:03.564Z,5.67
2018-07-25T03:36:32.779Z,5.03
2018-07-25T03:39:01.840Z,5.10
2018-07-25T03:41:30.879Z,5.10
2018-07-25T03:44:00.104Z,5.23
2018-07-25T03:46:28.834Z,5.17
2018-07-25T03:48:57.711Z,6.17
2018-07-25T03:51:26.859Z,6.07
2018-07-25T03:53:57.242Z,6.53
2018-07-25T03:56:26.175Z,6.43
2018-07-25T03:58:55.426Z,6.17
2018-07-25T04:01:24.624Z,6.63
2018-07-25T04:03:54.019Z,5.27
2018-07-25T04:06:23.431Z,7.97
2018-07-25T04:08:52.472Z,10.83
2018-07-25T04:11:21.795Z,19.13
2018-07-25T04:13:51.111Z,16.50
2018-07-25T04:16:20.214Z,16.80
2018-07-25T04:18:49.211Z,13.80
2018-07-25T04:21:18.133Z,9.63
2018-07-25T04:23:47.373Z,8.20
2018-07-25T04:26:16.436Z,9.17
2018-07-25T04:28:45.596Z,6.77
2018-07-25T04:31:14.748Z,5.80
2018-07-25T04:33:44.004Z,6.67
2018-07-25T04:36:13.110Z,6.60
2018-07-25T04:38:42.370Z,6.27
2018-07-25T04:41:11.409Z,5.10
2018-07-25T04:43:40.448Z,4.73
2018-07-25T04:46:09.501Z,4.70
2018-07-25T04:48:38.657Z,4.77
2018-07-25T04:51:07.924Z,4.80
2018-07-25T04:53:40.033Z,4.80
2018-07-25T04:56:09.136Z,5.67
2018-07-25T04:58:38.281Z,4.30
2018-07-25T05:01:07.345Z,5.20
2018-07-25T05:03:36.532Z,5.33
2018-07-25T05:06:05.798Z,4.00
2018-07-25T05:08:35.165Z,4.53
2018-07-25T05:11:04.406Z,4.92
2018-07-25T05:13:33.785Z,5.28
2018-07-25T05:16:03.120Z,4.92
2018-07-25T05:18:32.019Z,5.08
2018-07-25T05:21:01.144Z,6.90
2018-07-25T05:23:30.461Z,5.65
2018-07-25T05:25:59.672Z,5.35
2018-07-25T05:28:28.857Z,4.95
2018-07-25T05:30:58.204Z,4.95
2018-07-25T05:33:27.485Z,7.35
2018-07-25T05:35:56.783Z,5.62
2018-07-25T05:38:25.961Z,5.28
2018-07-25T05:40:55.206Z,6.53
2018-07-25T05:43:24.593Z,6.10
2018-07-25T05:45:53.518Z,5.58
2018-07-25T05:48:22.837Z,5.05
2018-07-25T05:50:52.470Z,5.33
2018-07-25T05:53:22.667Z,5.60
2018-07-25T05:55:51.929Z,5.15
2018-07-25T05:58:21.121Z,5.50
2018-07-25T06:00:50.353Z,5.28
2018-07-25T06:03:19.685Z,5.37
2018-07-25T06:05:48.935Z,5.30
2018-07-25T06:08:17.976Z,5.15
2018-07-25T06:10:47.281Z,6.00
2018-07-25T06:13:16.682Z,5.78
2018-07-25T06:15:45.845Z,5.60
2018-07-25T06:18:15.000Z,6.58
2018-07-25T06:20:43.826Z,5.08
2018-07-25T06:23:12.524Z,5.10
2018-07-25T06:25:41.461Z,5.05
2018-07-25T06:28:10.966Z,5.37
2018-07-25T06:30:39.983Z,9.93
2018-07-25T06:33:09.234Z,5.60
2018-07-25T06:35:39.664Z,5.22
2018-07-25T06:38:08.701Z,5.37
2018-07-25T06:40:37.855Z,5.15
2018-07-25T06:43:07.120Z,5.17
2018-07-25T06:45:36.437Z,4.67
2018-07-25T06:48:05.627Z,5.90
2018-07-25T06:50:34.850Z,5.35
2018-07-25T06:53:04.449Z,5.00
2018-07-25T06:55:38.938Z,8.40
2018-07-25T06:58:08.144Z,5.35
2018-07-25T07:00:36.989Z,6.42
2018-07-25T07:03:06.261Z,5.08
2018-07-25T07:05:35.440Z,4.85
2018-07-25T07:08:04.512Z,4.33
2018-07-25T07:10:33.623Z,5.10
2018-07-25T07:13:02.571Z,5.33
2018-07-25T07:15:34.646Z,5.05
2018-07-25T07:18:03.533Z,4.53
2018-07-25T07:20:32.450Z,5.25
2018-07-25T07:23:01.493Z,4.80
2018-07-25T07:25:30.591Z,4.60
2018-07-25T07:27:59.954Z,4.75
2018-07-25T07:30:29.179Z,4.70
2018-07-25T07:32:58.412Z,6.42
2018-07-25T07:35:31.653Z,4.58
2018-07-25T07:38:00.979Z,4.37
2018-07-25T07:40:30.892Z,4.92
2018-07-25T07:43:00.191Z,4.03
2018-07-25T07:45:29.590Z,6.17
2018-07-25T07:47:58.638Z,4.55
2018-07-25T07:50:27.739Z,4.45
2018-07-25T07:52:56.560Z,6.72
2018-07-25T07:55:26.462Z,7.25
2018-07-25T07:57:55.787Z,5.83
2018-07-25T08:00:24.788Z,5.65
2018-07-25T08:02:53.845Z,4.15
2018-07-25T08:05:22.912Z,5.45
2018-07-25T08:07:52.048Z,6.17
2018-07-25T08:10:21.128Z,4.92
2018-07-25T08:12:50.040Z,3.25
2018-07-25T08:15:21.958Z,5.95
2018-07-25T08:17:51.033Z,3.67
2018-07-25T08:20:20.308Z,3.92
2018-07-25T08:22:49.586Z,3.87
2018-07-25T08:25:18.369Z,3.33
2018-07-25T08:27:47.562Z,3.58
2018-07-25T08:30:16.680Z,4.05
2018-07-25T08:32:45.687Z,3.45
2018-07-25T08:35:20.212Z,4.03
2018-07-25T08:37:49.238Z,3.08
2018-07-25T08:40:18.430Z,4.45
2018-07-25T08:42:47.508Z,3.87
2018-07-25T08:45:16.564Z,5.30
2018-07-25T08:47:45.501Z,3.77
2018-07-25T08:50:14.564Z,3.58
2018-07-25T08:52:43.760Z,4.08
2018-07-25T08:55:12.697Z,3.27
2018-07-25T08:57:41.803Z,4.47
2018-07-25T09:00:10.746Z,5.42
2018-07-25T09:02:42.688Z,4.03
2018-07-25T09:05:11.805Z,3.90
2018-07-25T09:07:41.389Z,3.62
2018-07-25T09:10:10.431Z,3.77
2018-07-25T09:12:39.649Z,3.62
2018-07-25T09:15:08.666Z,3.50
2018-07-25T09:17:37.720Z,3.90
2018-07-25T09:20:06.743Z,4.40
2018-07-25T09:22:38.162Z,3.55
2018-07-25T09:25:07.373Z,3.58
2018-07-25T09:27:36.582Z,3.20
2018-07-25T09:30:07.075Z,3.58
2018-07-25T09:32:36.386Z,3.67
2018-07-25T09:35:05.587Z,3.92
2018-07-25T09:37:34.557Z,3.47
2018-07-25T09:40:03.937Z,3.77
2018-07-25T09:42:33.128Z,3.92
2018-07-25T09:45:02.162Z,4.17
2018-07-25T09:47:31.510Z,3.37
2018-07-25T09:50:02.117Z,3.40
2018-07-25T09:52:31.341Z,6.05
2018-07-25T09:55:00.500Z,3.12
2018-07-25T09:57:30.542Z,4.72
2018-07-25T10:00:00.110Z,3.05
2018-07-25T10:02:29.405Z,3.60
2018-07-25T10:04:58.302Z,3.22
2018-07-25T10:07:27.379Z,3.92
2018-07-25T10:09:59.225Z,3.05
2018-07-25T10:12:28.406Z,3.05
2018-07-25T10:14:57.333Z,4.12
2018-07-25T10:17:26.477Z,3.10
2018-07-25T10:19:55.260Z,3.85
2018-07-25T10:22:24.435Z,3.05
2018-07-25T10:24:53.757Z,3.15
2018-07-25T10:27:22.753Z,3.62
2018-07-25T10:29:52.021Z,2.47
2018-07-25T10:32:21.232Z,2.80
2018-07-25T10:34:50.620Z,3.08
2018-07-25T10:37:19.648Z,4.47
2018-07-25T10:39:48.741Z,3.52
2018-07-25T10:42:17.840Z,2.85
2018-07-25T10:44:47.767Z,3.00
2018-07-25T10:47:16.817Z,3.27
2018-07-25T10:49:47.176Z,3.33
2018-07-25T10:52:16.313Z,3.02
2018-07-25T10:54:45.530Z,3.33
2018-07-25T10:57:14.656Z,3.58
2018-07-25T10:59:43.834Z,3.20
2018-07-25T11:02:12.962Z,3.00
2018-07-25T11:04:41.857Z,4.58
2018-07-25T11:07:10.993Z,3.75
2018-07-25T11:09:42.815Z,3.22
2018-07-25T11:12:11.813Z,3.08
2018-07-25T11:14:40.802Z,3.20
2018-07-25T11:17:09.857Z,3.02
2018-07-25T11:19:38.533Z,6.10
2018-07-25T11:22:07.740Z,3.20
2018-07-25T11:24:36.975Z,3.27
2018-07-25T11:27:06.027Z,4.12
2018-07-25T11:29:35.334Z,3.37
2018-07-25T11:32:04.688Z,3.08
2018-07-25T11:34:34.063Z,3.47
2018-07-25T11:37:03.284Z,4.85
2018-07-25T11:39:32.239Z,3.30
2018-07-25T11:42:01.211Z,5.05
2018-07-25T11:44:30.511Z,3.10
2018-07-25T11:46:59.323Z,3.10
2018-07-25T11:49:28.200Z,4.30
2018-07-25T11:51:57.061Z,6.22
2018-07-25T11:54:25.989Z,3.20
2018-07-25T11:56:54.876Z,3.15
2018-07-25T11:59:23.936Z,3.80
2018-07-25T12:01:54.676Z,3.05
2018-07-25T12:04:23.516Z,2.60
2018-07-25T12:06:52.525Z,3.37
2018-07-25T12:09:21.701Z,3.17
2018-07-25T12:11:50.872Z,3.10
2018-07-25T12:14:19.980Z,3.00
2018-07-25T12:16:49.102Z,2.92
2018-07-25T12:19:18.291Z,3.70
2018-07-25T12:21:47.576Z,2.80
2018-07-25T12:24:16.863Z,3.58
2018-07-25T12:26:45.962Z,3.75
2018-07-25T12:29:15.487Z,3.20
2018-07-25T12:31:44.610Z,4.50
2018-07-25T12:34:15.273Z,3.12
2018-07-25T12:36:44.403Z,3.72
2018-07-25T12:39:13.597Z,2.98
2018-07-25T12:41:42.864Z,2.87
2018-07-25T12:44:12.151Z,2.83
2018-07-25T12:46:41.173Z,2.98
2018-07-25T12:49:10.313Z,3.00
2018-07-25T12:51:39.521Z,2.65
2018-07-25T12:54:14.047Z,3.00
2018-07-25T12:56:43.276Z,2.80
2018-07-25T12:59:12.394Z,3.65
2018-07-25T13:01:41.521Z,3.00
2018-07-25T13:04:10.807Z,2.98
2018-07-25T13:06:43.718Z,3.08
2018-07-25T13:09:13.247Z,3.17
2018-07-25T13:11:42.131Z,2.50
2018-07-25T13:14:11.251Z,2.85
2018-07-25T13:16:40.673Z,2.70
2018-07-25T13:19:09.863Z,3.37
2018-07-25T13:21:39.085Z,3.05
2018-07-25T13:24:08.467Z,3.17
2018-07-25T13:26:39.277Z,2.95
2018-07-25T13:29:08.609Z,2.75
2018-07-25T13:31:38.041Z,2.75
2018-07-25T13:34:07.353Z,3.10
2018-07-25T13:36:37.192Z,2.98
2018-07-25T13:39:07.003Z,2.85
2018-07-25T13:41:36.327Z,7.37
2018-07-25T13:44:05.692Z,3.72
2018-07-25T13:46:35.717Z,3.35
2018-07-25T13:49:04.857Z,2.87
2018-07-25T13:51:34.300Z,2.60
2018-07-25T13:54:03.459Z,2.55
2018-07-25T13:56:32.705Z,2.55
2018-07-25T13:59:01.860Z,2.80
2018-07-25T14:01:31.201Z,2.77
2018-07-25T14:04:00.424Z,4.10
2018-07-25T14:06:29.749Z,2.33
2018-07-25T14:08:58.917Z,2.95
2018-07-25T14:11:28.159Z,2.67
2018-07-25T14:13:57.363Z,2.22
2018-07-25T14:16:26.556Z,3.58
2018-07-25T14:18:55.760Z,2.42
2018-07-25T14:21:24.924Z,2.58
2018-07-25T14:23:54.294Z,2.37
2018-07-25T14:26:23.335Z,2.00
2018-07-25T14:28:52.807Z,3.72
2018-07-25T14:31:24.558Z,2.77
2018-07-25T14:33:53.733Z,4.60
2018-07-25T14:36:22.921Z,2.62
2018-07-25T14:38:52.092Z,2.67
2018-07-25T14:41:21.332Z,2.25
2018-07-25T14:43:50.277Z,2.50
2018-07-25T14:46:19.483Z,3.08
2018-07-25T14:48:48.597Z,2.87
2018-07-25T14:51:19.292Z,2.55
2018-07-25T14:53:48.591Z,2.12
2018-07-25T14:56:17.845Z,4.33
2018-07-25T14:58:47.058Z,2.60
2018-07-25T15:01:16.387Z,2.83
2018-07-25T15:03:45.861Z,4.50
2018-07-25T15:06:15.136Z,5.08
2018-07-25T15:08:44.251Z,3.85
2018-07-25T15:11:14.404Z,2.87
2018-07-25T15:13:43.616Z,2.72
2018-07-25T15:16:12.756Z,2.70
2018-07-25T15:18:42.014Z,2.60
2018-07-25T15:21:11.228Z,3.17
2018-07-25T15:23:51.707Z,3.42
2018-07-25T15:26:20.680Z,3.70
2018-07-25T15:28:49.921Z,2.35
2018-07-25T15:31:19.634Z,3.05
2018-07-25T15:33:49.133Z,3.10
2018-07-25T15:36:51.445Z,3.20
2018-07-25T15:39:23.891Z,4.78
2018-07-25T15:41:54.140Z,4.20
2018-07-25T15:44:24.778Z,5.53
2018-07-25T15:46:54.838Z,2.90
2018-07-25T15:49:29.816Z,2.98
2018-07-25T15:51:59.555Z,5.10
2018-07-25T15:54:28.814Z,2.98
2018-07-25T15:56:58.174Z,3.02
2018-07-25T15:59:27.381Z,3.40
2018-07-25T16:01:56.724Z,3.27
2018-07-25T16:04:26.272Z,3.47
2018-07-25T16:06:55.813Z,3.30
2018-07-25T16:09:26.624Z,4.53
2018-07-25T16:11:56.206Z,3.35
2018-07-25T16:14:25.692Z,2.85
2018-07-25T16:16:55.454Z,2.77
2018-07-25T16:19:24.841Z,3.65
2018-07-25T16:21:54.422Z,2.90
2018-07-25T16:24:23.767Z,2.75
2018-07-25T16:26:53.014Z,4.05
2018-07-25T16:29:23.556Z,3.17
2018-07-25T16:31:52.797Z,4.15
2018-07-25T16:34:22.137Z,3.65
2018-07-25T16:36:51.798Z,4.97
2018-07-25T16:39:21.476Z,3.37
2018-07-25T16:41:50.758Z,3.08
2018-07-25T16:44:20.513Z,4.15
2018-07-25T16:46:50.513Z,3.20
2018-07-25T16:49:20.997Z,3.70
2018-07-25T16:51:50.173Z,3.62
2018-07-25T16:54:19.590Z,5.67
2018-07-25T16:56:49.025Z,3.20
2018-07-25T16:59:18.256Z,3.15
2018-07-25T17:01:47.614Z,2.45
2018-07-25T17:04:17.339Z,3.02
2018-07-25T17:06:46.727Z,4.92
2018-07-25T17:09:15.994Z,2.80
2018-07-25T17:11:45.483Z,4.10
2018-07-25T17:14:14.780Z,4.70
2018-07-25T17:16:44.051Z,4.37
2018-07-25T17:19:13.260Z,4.42
2018-07-25T17:21:45.515Z,5.20
2018-07-25T17:24:14.650Z,5.25
2018-07-25T17:26:43.975Z,4.58
2018-07-25T17:29:13.213Z,4.60
2018-07-25T17:31:42.628Z,2.02
2018-07-25T17:34:11.950Z,3.35
2018-07-25T17:36:41.243Z,3.25
2018-07-25T17:39:11.809Z,2.47
2018-07-25T17:41:43.761Z,5.05
2018-07-25T17:44:13.432Z,2.45
2018-07-25T17:46:42.762Z,4.40
2018-07-25T17:49:11.926Z,2.92
2018-07-25T17:51:41.180Z,2.37
2018-07-25T17:54:11.848Z,5.05
2018-07-25T17:56:41.272Z,4.55
2018-07-25T17:59:10.752Z,5.00
2018-07-25T18:01:40.423Z,3.58
2018-07-25T18:04:10.605Z,2.40
2018-07-25T18:06:40.172Z,2.65
2018-07-25T18:09:10.298Z,4.00
2018-07-25T18:11:39.672Z,2.62
2018-07-25T18:14:15.632Z,2.72
2018-07-25T18:16:45.523Z,2.10
2018-07-25T18:19:16.133Z,2.15
2018-07-25T18:21:45.973Z,1.90
2018-07-25T18:24:16.071Z,2.22
2018-07-25T18:26:45.411Z,2.00
2018-07-25T18:29:15.088Z,1.82
2018-07-25T18:31:45.148Z,1.67
2018-07-25T18:34:17.998Z,2.15
2018-07-25T18:36:48.145Z,2.22
2018-07-25T18:39:18.343Z,3.02
2018-07-25T18:41:48.455Z,2.00
2018-07-25T18:44:19.284Z,4.25
2018-07-25T18:46:49.556Z,2.50
2018-07-25T18:49:19.656Z,1.95
2018-07-25T18:51:49.769Z,2.08
2018-07-25T18:54:19.302Z,2.20
2018-07-25T18:56:48.669Z,2.40
2018-07-25T18:59:18.776Z,2.40
2018-07-25T19:01:49.298Z,2.98
2018-07-25T19:04:19.266Z,2.67
2018-07-25T19:06:50.808Z,2.77
2018-07-25T19:09:20.280Z,2.05
2018-07-25T19:11:49.687Z,2.40
2018-07-25T19:14:24.127Z,3.02
2018-07-25T19:16:53.401Z,1.87
2018-07-25T19:19:23.729Z,2.00
2018-07-25T19:21:53.186Z,1.90
2018-07-25T19:24:22.650Z,2.30
2018-07-25T19:26:51.620Z,4.35
2018-07-25T19:29:21.109Z,3.67
2018-07-25T19:31:51.276Z,3.10
2018-07-25T19:34:20.631Z,3.10
2018-07-25T19:36:49.892Z,6.47
2018-07-25T19:39:19.105Z,4.55
2018-07-25T19:41:48.130Z,3.15
2018-07-25T19:44:17.219Z,2.80
2018-07-25T19:46:46.642Z,2.60
2018-07-25T19:49:15.911Z,2.70
2018-07-25T19:51:46.414Z,2.77
2018-07-25T19:54:15.723Z,2.58
2018-07-25T19:56:45.027Z,2.85
2018-07-25T19:59:14.275Z,2.37
2018-07-25T20:01:43.516Z,4.12
2018-07-25T20:04:12.605Z,2.70
2018-07-25T20:06:41.916Z,2.58
2018-07-25T20:09:11.134Z,2.10
2018-07-25T20:11:41.518Z,2.62
2018-07-25T20:14:15.606Z,3.35
2018-07-25T20:16:44.641Z,2.40
2018-07-25T20:19:13.803Z,2.45
2018-07-25T20:21:43.097Z,2.05
2018-07-25T20:24:13.916Z,2.22
2018-07-25T20:26:43.126Z,2.05
2018-07-25T20:29:12.302Z,3.72
2018-07-25T20:31:41.547Z,2.22
2018-07-25T20:34:10.733Z,4.20
2018-07-25T20:36:45.547Z,2.60
2018-07-25T20:39:14.893Z,3.47
2018-07-25T20:41:44.060Z,1.90
2018-07-25T20:44:13.573Z,2.35
2018-07-25T20:46:43.067Z,3.57
2018-07-25T20:49:13.946Z,2.27
2018-07-25T20:51:43.339Z,2.42
2018-07-25T20:54:12.815Z,2.20
2018-07-25T20:56:41.712Z,2.20
2018-07-25T20:59:10.994Z,3.20
2018-07-25T21:01:40.225Z,3.20
2018-07-25T21:04:09.316Z,3.67
2018-07-25T21:06:38.637Z,2.70
2018-07-25T21:09:09.416Z,2.37
2018-07-25T21:11:38.782Z,2.43
2018-07-25T21:14:07.659Z,3.23
2018-07-25T21:16:36.681Z,3.40
2018-07-25T21:19:06.008Z,2.97
2018-07-25T21:21:35.248Z,3.17
2018-07-25T21:24:04.497Z,3.50
2018-07-25T21:26:33.880Z,2.30
2018-07-25T21:29:04.797Z,2.13
2018-07-25T21:31:34.112Z,3.07
2018-07-25T21:34:09.785Z,1.80
2018-07-25T21:36:39.199Z,1.83
2018-07-25T21:39:09.603Z,1.40
2018-07-25T21:41:38.770Z,2.60
2018-07-25T21:44:08.401Z,2.12
2018-07-25T21:46:37.332Z,2.00
2018-07-25T21:49:07.211Z,3.10
2018-07-25T21:51:36.471Z,1.90
2018-07-25T21:54:05.838Z,2.00
2018-07-25T21:56:35.109Z,1.83
2018-07-25T21:59:04.435Z,1.43
2018-07-25T22:01:34.885Z,1.40
2018-07-25T22:04:04.395Z,1.57
2018-07-25T22:06:33.602Z,2.40
2018-07-25T22:09:02.927Z,1.73
2018-07-25T22:11:32.137Z,1.07
2018-07-25T22:14:02.885Z,1.53
2018-07-25T22:16:32.208Z,1.57
2018-07-25T22:19:01.088Z,1.70
2018-07-25T22:21:30.115Z,1.73
2018-07-25T22:23:59.405Z,1.70
2018-07-25T22:26:29.540Z,1.50
2018-07-25T22:28:58.472Z,1.60
2018-07-25T22:31:27.563Z,2.77
2018-07-25T22:33:56.556Z,2.23
2018-07-25T22:36:25.750Z,1.93
2018-07-25T22:38:54.813Z,2.30
2018-07-25T22:41:23.922Z,2.17
2018-07-25T22:43:52.868Z,2.43
2018-07-25T22:46:23.032Z,1.80
2018-07-25T22:48:52.337Z,1.73
2018-07-25T22:51:21.565Z,2.00
2018-07-25T22:53:50.918Z,2.47
2018-07-25T22:56:20.153Z,2.60
2018-07-25T22:58:49.317Z,2.67
2018-07-25T23:01:18.631Z,2.43
2018-07-25T23:03:47.463Z,2.73
2018-07-25T23:06:19.150Z,2.20
2018-07-25T23:08:48.210Z,1.93
2018-07-25T23:11:17.296Z,1.47
2018-07-25T23:13:46.905Z,2.17
2018-07-25T23:16:17.349Z,3.00
2018-07-25T23:18:47.000Z,1.90
2018-07-25T23:21:16.240Z,2.00
2018-07-25T23:23:45.356Z,2.40
2018-07-25T23:26:15.633Z,2.07
2018-07-25T23:28:44.728Z,3.00
2018-07-25T23:31:13.953Z,2.10
2018-07-25T23:33:43.232Z,2.20
2018-07-25T23:36:12.441Z,2.60
2018-07-25T23:38:44.296Z,1.80
2018-07-25T23:41:13.387Z,1.77
2018-07-25T23:43:42.489Z,2.03
2018-07-25T23:46:11.732Z,1.80
2018-07-25T23:48:41.100Z,1.87
2018-07-25T23:51:10.220Z,2.53
2018-07-25T23:53:39.267Z,2.60
2018-07-25T23:56:08.420Z,2.00
2018-07-25T23:58:40.645Z,2.60
